createdAt,value
2023-03-20T00:02:29.851Z,6.22
2023-03-20T00:05:20.063Z,5.10
2023-03-20T00:08:08.592Z,5.00
2023-03-20T00:10:56.141Z,5.65
2023-03-20T00:13:44.934Z,5.22
2023-03-20T00:16:35.216Z,4.20
2023-03-20T00:19:25.818Z,5.05
2023-03-20T00:22:13.343Z,5.72
2023-03-20T00:25:00.675Z,5.43
2023-03-20T00:27:48.905Z,4.00
2023-03-20T00:30:38.560Z,3.90
2023-03-20T00:33:27.062Z,3.58
2023-03-20T00:36:14.687Z,3.60
2023-03-20T00:39:02.837Z,5.70
2023-03-20T00:41:52.853Z,5.47
2023-03-20T00:44:47.486Z,3.88
2023-03-20T00:47:38.771Z,4.90
2023-03-20T00:50:29.721Z,3.60
2023-03-20T00:53:18.573Z,4.37
2023-03-20T00:56:07.080Z,4.13
2023-03-20T00:58:54.404Z,4.67
2023-03-20T01:01:41.903Z,4.40
2023-03-20T01:04:37.254Z,5.90
2023-03-20T01:07:24.559Z,5.10
2023-03-20T01:10:12.629Z,3.50
2023-03-20T01:13:03.539Z,3.97
2023-03-20T01:15:52.474Z,4.10
2023-03-20T01:18:39.642Z,3.80
2023-03-20T01:21:28.404Z,4.30
2023-03-20T01:24:15.868Z,5.60
2023-03-20T01:27:05.419Z,4.53
2023-03-20T01:29:52.903Z,4.50
2023-03-20T01:32:40.371Z,6.33
2023-03-20T01:35:29.447Z,3.63
2023-03-20T01:38:25.251Z,4.60
2023-03-20T01:41:18.037Z,5.97
2023-03-20T01:44:19.364Z,4.93
2023-03-20T01:47:17.374Z,8.30
2023-03-20T01:50:27.310Z,5.93
2023-03-20T01:53:26.482Z,4.47
2023-03-20T01:56:21.845Z,4.50
2023-03-20T01:59:15.325Z,4.13
2023-03-20T02:02:02.632Z,5.20
2023-03-20T02:04:55.090Z,5.07
2023-03-20T02:07:43.179Z,5.57
2023-03-20T02:10:33.308Z,4.13
2023-03-20T02:13:37.499Z,6.87
2023-03-20T02:16:24.684Z,8.10
2023-03-20T02:19:29.669Z,5.70
2023-03-20T02:22:58.450Z,6.37
2023-03-20T02:26:10.716Z,4.77
2023-03-20T02:29:43.415Z,6.20
2023-03-20T02:33:13.973Z,4.50
2023-03-20T02:36:45.646Z,4.50
2023-03-20T02:39:53.855Z,4.90
2023-03-20T02:42:51.173Z,5.90
2023-03-20T02:45:48.102Z,5.80
2023-03-20T02:48:47.366Z,5.97
2023-03-20T02:51:41.631Z,6.53
2023-03-20T02:54:34.962Z,5.50
2023-03-20T02:57:31.516Z,5.20
2023-03-20T03:00:28.349Z,5.00
2023-03-20T03:03:21.031Z,6.03
2023-03-20T03:06:13.423Z,5.97
2023-03-20T03:09:05.640Z,5.43
2023-03-20T03:11:56.960Z,5.28
2023-03-20T03:14:48.572Z,5.63
2023-03-20T03:17:39.840Z,5.40
2023-03-20T03:20:34.493Z,6.53
2023-03-20T03:23:27.475Z,9.73
2023-03-20T03:26:19.430Z,6.03
2023-03-20T03:29:14.720Z,5.83
2023-03-20T03:32:06.657Z,5.80
2023-03-20T03:34:54.440Z,5.50
2023-03-20T03:37:48.459Z,4.73
2023-03-20T03:40:44.676Z,5.00
2023-03-20T03:43:37.556Z,5.10
2023-03-20T03:46:34.111Z,5.27
2023-03-20T03:49:25.231Z,5.30
2023-03-20T03:52:17.018Z,6.93
2023-03-20T03:55:08.152Z,4.70
2023-03-20T03:58:20.230Z,8.43
2023-03-20T04:01:11.826Z,6.13
2023-03-20T04:04:04.949Z,5.87
2023-03-20T04:06:54.056Z,4.60
2023-03-20T04:09:41.500Z,5.00
2023-03-20T04:12:39.968Z,6.20
2023-03-20T04:15:30.403Z,5.20
2023-03-20T04:18:19.063Z,4.70
2023-03-20T04:21:08.687Z,5.47
2023-03-20T04:23:57.288Z,5.10
2023-03-20T04:26:44.489Z,4.67
2023-03-20T04:29:31.680Z,5.60
2023-03-20T04:32:45.014Z,4.97
2023-03-20T04:35:45.446Z,5.27
2023-03-20T04:38:34.769Z,9.03
2023-03-20T04:41:24.166Z,5.13
2023-03-20T04:44:15.360Z,7.13
2023-03-20T04:47:05.280Z,8.70
2023-03-20T04:49:54.365Z,5.63
2023-03-20T04:52:41.644Z,7.53
2023-03-20T04:55:29.184Z,5.70
2023-03-20T04:58:18.012Z,5.17
2023-03-20T05:01:05.647Z,6.20
2023-03-20T05:03:53.096Z,5.23
2023-03-20T05:06:40.553Z,6.60
2023-03-20T05:09:28.563Z,7.57
2023-03-20T05:12:17.229Z,6.07
2023-03-20T05:15:28.347Z,7.13
2023-03-20T05:18:34.387Z,7.35
2023-03-20T05:21:44.482Z,5.90
2023-03-20T05:25:04.012Z,15.10
2023-03-20T05:28:02.987Z,12.67
2023-03-20T05:31:11.980Z,10.35
2023-03-20T05:34:31.630Z,8.93
2023-03-20T05:37:48.389Z,8.87
2023-03-20T05:40:58.429Z,7.70
2023-03-20T05:43:58.248Z,7.20
2023-03-20T05:47:07.158Z,10.90
2023-03-20T05:50:16.164Z,7.80
2023-03-20T05:53:06.229Z,8.17
2023-03-20T05:56:08.026Z,9.57
2023-03-20T05:59:01.104Z,8.23
2023-03-20T06:02:01.939Z,8.77
2023-03-20T06:04:54.228Z,10.63
2023-03-20T06:07:59.814Z,12.23
2023-03-20T06:10:47.345Z,10.20
2023-03-20T06:13:35.341Z,12.13
2023-03-20T06:16:23.063Z,10.48
2023-03-20T06:19:11.697Z,11.70
2023-03-20T06:22:00.641Z,10.83
2023-03-20T06:24:47.889Z,10.13
2023-03-20T06:27:35.782Z,10.47
2023-03-20T06:30:23.774Z,12.32
2023-03-20T06:33:11.966Z,13.75
2023-03-20T06:36:13.609Z,12.40
2023-03-20T06:39:03.328Z,11.97
2023-03-20T06:41:50.850Z,12.23
2023-03-20T06:44:43.181Z,13.47
2023-03-20T06:47:35.904Z,11.53
2023-03-20T06:50:23.858Z,14.77
2023-03-20T06:53:10.905Z,17.13
2023-03-20T06:56:07.518Z,15.90
2023-03-20T06:58:54.832Z,19.63
2023-03-20T07:01:42.329Z,18.93
2023-03-20T07:04:29.857Z,20.50
2023-03-20T07:07:20.703Z,22.00
2023-03-20T07:10:09.859Z,15.50
2023-03-20T07:12:58.652Z,20.97
2023-03-20T07:16:03.023Z,22.07
2023-03-20T07:18:53.691Z,27.00
2023-03-20T07:21:41.216Z,23.13
2023-03-20T07:24:28.963Z,25.37
2023-03-20T07:27:18.099Z,23.60
2023-03-20T07:30:08.823Z,26.07
2023-03-20T07:32:56.924Z,23.63
2023-03-20T07:35:52.933Z,28.07
2023-03-20T07:38:40.407Z,25.10
2023-03-20T07:41:30.883Z,25.77
2023-03-20T07:44:23.664Z,27.40
2023-03-20T07:47:15.080Z,27.70
2023-03-20T07:50:02.253Z,28.83
2023-03-20T07:52:52.298Z,29.33
2023-03-20T07:55:41.892Z,31.77
2023-03-20T07:58:31.294Z,29.27
2023-03-20T08:01:18.762Z,29.13
2023-03-20T08:04:07.735Z,25.77
2023-03-20T08:06:55.072Z,28.67
2023-03-20T08:09:42.746Z,32.00
2023-03-20T08:12:29.965Z,29.47
2023-03-20T08:15:17.582Z,28.00
2023-03-20T08:18:04.766Z,28.20
2023-03-20T08:20:53.815Z,27.00
2023-03-20T08:23:40.944Z,26.33
2023-03-20T08:26:28.241Z,26.60
2023-03-20T08:29:17.329Z,31.27
2023-03-20T08:32:04.772Z,25.63
2023-03-20T08:34:52.185Z,25.43
2023-03-20T08:37:41.038Z,29.30
2023-03-20T08:40:28.309Z,24.57
2023-03-20T08:43:15.426Z,26.53
2023-03-20T08:46:02.803Z,24.13
2023-03-20T08:48:50.089Z,20.33
2023-03-20T08:51:37.601Z,23.87
2023-03-20T08:54:26.653Z,23.20
2023-03-20T08:57:13.865Z,19.67
2023-03-20T09:00:01.423Z,19.73
2023-03-20T09:02:48.901Z,19.02
2023-03-20T09:05:38.206Z,17.17
2023-03-20T09:08:25.943Z,18.73
2023-03-20T09:11:15.136Z,18.02
2023-03-20T09:14:02.487Z,19.65
2023-03-20T09:16:50.320Z,16.48
2023-03-20T09:19:39.716Z,17.55
2023-03-20T09:22:27.115Z,13.93
2023-03-20T09:25:14.756Z,12.55
2023-03-20T09:28:03.563Z,16.10
2023-03-20T09:30:50.840Z,17.95
2023-03-20T09:33:38.141Z,15.30
2023-03-20T09:36:25.579Z,17.95
2023-03-20T09:39:13.156Z,16.25
2023-03-20T09:42:08.448Z,17.45
2023-03-20T09:45:06.846Z,14.90
2023-03-20T09:48:02.274Z,18.90
2023-03-20T09:50:59.176Z,15.77
2023-03-20T09:53:52.344Z,16.27
2023-03-20T09:56:39.695Z,16.40
2023-03-20T09:59:28.645Z,13.27
2023-03-20T10:02:24.358Z,13.30
2023-03-20T10:05:19.864Z,12.30
2023-03-20T10:08:11.191Z,13.43
2023-03-20T10:11:07.373Z,12.63
2023-03-20T10:14:43.130Z,11.27
2023-03-20T10:17:41.037Z,13.40
2023-03-20T10:20:34.348Z,13.90
2023-03-20T10:23:28.110Z,12.63
2023-03-20T10:26:18.867Z,12.52
2023-03-20T10:29:13.115Z,13.15
2023-03-20T10:32:08.670Z,10.50
2023-03-20T10:35:09.536Z,10.38
2023-03-20T10:38:08.224Z,10.75
2023-03-20T10:40:58.859Z,11.23
2023-03-20T10:43:49.717Z,11.05
2023-03-20T10:46:44.316Z,9.20
2023-03-20T10:49:37.968Z,8.75
2023-03-20T10:52:30.221Z,11.18
2023-03-20T10:55:20.627Z,10.68
2023-03-20T10:58:17.036Z,8.90
2023-03-20T11:01:04.639Z,10.00
2023-03-20T11:03:52.475Z,7.75
2023-03-20T11:06:45.998Z,8.27
2023-03-20T11:09:34.872Z,8.45
2023-03-20T11:12:21.962Z,9.13
2023-03-20T11:15:21.633Z,8.35
2023-03-20T11:18:13.941Z,12.60
2023-03-20T11:21:03.572Z,7.93
2023-03-20T11:23:51.425Z,8.38
2023-03-20T11:26:42.067Z,7.05
2023-03-20T11:29:35.030Z,8.60
2023-03-20T11:32:29.055Z,7.60
2023-03-20T11:35:22.465Z,5.43
2023-03-20T11:38:14.192Z,9.88
2023-03-20T11:41:06.420Z,9.18
2023-03-20T11:43:55.805Z,6.80
2023-03-20T11:46:44.343Z,8.63
2023-03-20T11:49:32.414Z,8.68
2023-03-20T11:52:25.282Z,6.82
2023-03-20T11:55:27.377Z,6.93
2023-03-20T11:58:18.340Z,8.02
2023-03-20T12:01:11.122Z,7.22
2023-03-20T12:04:04.152Z,9.55
2023-03-20T12:06:56.097Z,10.45
2023-03-20T12:09:49.129Z,8.40
2023-03-20T12:12:42.142Z,10.05
2023-03-20T12:15:32.868Z,6.65
2023-03-20T12:18:30.056Z,7.88
2023-03-20T12:21:24.251Z,7.40
2023-03-20T12:24:18.594Z,7.15
2023-03-20T12:27:22.152Z,7.55
2023-03-20T12:30:17.879Z,8.60
2023-03-20T12:33:09.727Z,7.13
2023-03-20T12:35:59.535Z,8.85
2023-03-20T12:38:47.596Z,8.13
2023-03-20T12:41:42.160Z,6.63
2023-03-20T12:44:39.476Z,7.15
2023-03-20T12:47:54.108Z,7.57
2023-03-20T12:50:42.986Z,8.75
2023-03-20T12:53:42.381Z,9.15
2023-03-20T12:56:44.317Z,9.73
2023-03-20T12:59:43.807Z,8.98
2023-03-20T13:02:46.311Z,10.07
2023-03-20T13:05:41.415Z,12.20
2023-03-20T13:08:43.715Z,10.55
2023-03-20T13:11:37.676Z,10.80
2023-03-20T13:14:29.169Z,9.35
2023-03-20T13:17:25.308Z,8.25
2023-03-20T13:20:25.056Z,10.30
2023-03-20T13:23:21.993Z,9.85
2023-03-20T13:26:19.840Z,10.68
2023-03-20T13:29:11.861Z,13.85
2023-03-20T13:32:11.053Z,10.55
2023-03-20T13:35:23.255Z,9.32
2023-03-20T13:38:15.925Z,12.50
2023-03-20T13:41:06.505Z,13.23
2023-03-20T13:44:01.129Z,12.32
2023-03-20T13:46:52.568Z,11.10
2023-03-20T13:49:44.110Z,13.18
2023-03-20T13:52:38.261Z,11.80
2023-03-20T13:55:31.902Z,10.98
2023-03-20T13:58:38.325Z,12.98
2023-03-20T14:01:34.163Z,11.50
2023-03-20T14:04:24.846Z,10.57
2023-03-20T14:07:28.463Z,9.57
2023-03-20T14:10:36.064Z,12.27
2023-03-20T14:13:27.418Z,14.65
2023-03-20T14:16:18.291Z,11.50
2023-03-20T14:19:12.866Z,12.32
2023-03-20T14:22:00.695Z,9.27
2023-03-20T14:24:56.917Z,11.65
2023-03-20T14:27:56.626Z,10.93
2023-03-20T14:30:46.293Z,12.25
2023-03-20T14:33:33.571Z,12.48
2023-03-20T14:36:26.953Z,13.75
2023-03-20T14:39:23.540Z,12.98
2023-03-20T14:42:26.692Z,13.68
2023-03-20T14:45:37.161Z,12.85
2023-03-20T14:48:31.900Z,14.30
2023-03-20T14:51:32.098Z,14.10
2023-03-20T14:54:28.110Z,14.48
2023-03-20T14:57:20.365Z,14.10
2023-03-20T15:00:19.484Z,14.05
2023-03-20T15:03:09.785Z,15.98
2023-03-20T15:05:58.670Z,13.15
2023-03-20T15:08:51.636Z,16.52
2023-03-20T15:11:39.671Z,16.90
2023-03-20T15:14:31.954Z,13.90
2023-03-20T15:17:21.861Z,14.30
2023-03-20T15:20:16.245Z,14.18
2023-03-20T15:23:04.961Z,15.15
2023-03-20T15:25:53.850Z,13.40
2023-03-20T15:28:43.029Z,12.43
2023-03-20T15:31:32.905Z,15.57
2023-03-20T15:34:23.741Z,13.57
2023-03-20T15:37:16.998Z,11.55
2023-03-20T15:40:12.866Z,13.75
2023-03-20T15:43:12.734Z,14.48
2023-03-20T15:46:16.814Z,16.17
2023-03-20T15:49:06.223Z,13.18
2023-03-20T15:51:55.640Z,13.25
2023-03-20T15:54:43.808Z,13.45
2023-03-20T15:57:35.725Z,11.73
2023-03-20T16:00:29.899Z,13.00
2023-03-20T16:03:20.916Z,13.23
2023-03-20T16:06:11.857Z,12.57
2023-03-20T16:09:01.841Z,16.90
2023-03-20T16:11:55.771Z,14.00
2023-03-20T16:14:43.175Z,19.08
2023-03-20T16:17:31.985Z,12.75
2023-03-20T16:20:20.018Z,17.63
2023-03-20T16:23:09.428Z,13.77
2023-03-20T16:25:59.035Z,14.00
2023-03-20T16:28:48.234Z,15.63
2023-03-20T16:31:37.553Z,12.88
2023-03-20T16:34:28.691Z,14.00
2023-03-20T16:37:26.118Z,11.68
2023-03-20T16:40:21.199Z,12.85
2023-03-20T16:43:15.700Z,12.75
2023-03-20T16:46:07.038Z,13.90
2023-03-20T16:48:58.546Z,14.45
2023-03-20T16:51:47.141Z,13.68
2023-03-20T16:54:37.275Z,13.18
2023-03-20T16:57:25.786Z,15.20
2023-03-20T17:00:22.972Z,16.58
2023-03-20T17:03:15.892Z,16.55
2023-03-20T17:06:07.297Z,15.77
2023-03-20T17:09:01.022Z,15.60
2023-03-20T17:11:51.193Z,13.73
2023-03-20T17:14:40.370Z,15.63
2023-03-20T17:17:27.925Z,15.05
2023-03-20T17:20:20.874Z,13.60
2023-03-20T17:23:13.731Z,15.43
2023-03-20T17:26:02.262Z,14.65
2023-03-20T17:28:49.417Z,15.15
2023-03-20T17:31:37.003Z,16.30
2023-03-20T17:34:24.627Z,15.85
2023-03-20T17:37:15.510Z,13.70
2023-03-20T17:40:03.365Z,15.88
2023-03-20T17:42:51.930Z,13.63
2023-03-20T17:45:39.476Z,15.50
2023-03-20T17:48:26.981Z,13.50
2023-03-20T17:51:14.650Z,17.37
2023-03-20T17:54:01.958Z,14.25
2023-03-20T17:56:49.622Z,17.75
2023-03-20T17:59:38.461Z,15.95
2023-03-20T18:02:26.100Z,16.30
2023-03-20T18:05:13.674Z,14.73
2023-03-20T18:08:01.214Z,17.08
2023-03-20T18:10:49.610Z,15.27
2023-03-20T18:13:36.998Z,14.45
2023-03-20T18:16:27.165Z,15.63
2023-03-20T18:19:23.867Z,17.33
2023-03-20T18:22:11.747Z,12.07
2023-03-20T18:24:59.269Z,14.02
2023-03-20T18:27:46.890Z,14.37
2023-03-20T18:30:36.847Z,13.73
2023-03-20T18:33:27.680Z,13.67
2023-03-20T18:36:17.122Z,12.45
2023-03-20T18:39:06.135Z,13.30
2023-03-20T18:41:53.709Z,14.30
2023-03-20T18:44:41.192Z,14.27
2023-03-20T18:47:28.539Z,13.18
2023-03-20T18:50:25.331Z,15.43
2023-03-20T18:53:12.782Z,13.23
2023-03-20T18:56:00.585Z,16.30
2023-03-20T18:58:49.158Z,14.47
2023-03-20T19:01:36.870Z,16.03
2023-03-20T19:04:24.307Z,14.73
2023-03-20T19:07:14.120Z,13.90
2023-03-20T19:10:01.740Z,16.47
2023-03-20T19:12:49.056Z,12.67
2023-03-20T19:15:38.629Z,16.50
2023-03-20T19:18:27.616Z,16.70
2023-03-20T19:21:14.678Z,15.07
2023-03-20T19:24:05.378Z,14.30
2023-03-20T19:26:56.944Z,16.43
2023-03-20T19:29:46.733Z,14.10
2023-03-20T19:32:34.395Z,14.50
2023-03-20T19:35:50.322Z,15.10
2023-03-20T19:38:29.328Z,13.80
2023-03-20T19:41:19.869Z,12.73
2023-03-20T19:44:07.272Z,15.23
2023-03-20T19:46:56.404Z,16.57
2023-03-20T19:49:43.799Z,14.40
2023-03-20T19:52:33.972Z,14.47
2023-03-20T19:55:21.663Z,16.10
2023-03-20T19:58:10.458Z,14.70
2023-03-20T20:00:59.168Z,15.50
2023-03-20T20:03:47.707Z,13.73
2023-03-20T20:06:35.655Z,13.50
2023-03-20T20:09:22.953Z,12.83
2023-03-20T20:12:10.352Z,11.60
2023-03-20T20:14:59.100Z,12.27
2023-03-20T20:17:47.320Z,14.17
2023-03-20T20:20:36.050Z,12.00
2023-03-20T20:23:24.663Z,12.87
2023-03-20T20:26:12.124Z,11.50
2023-03-20T20:28:59.572Z,11.43
2023-03-20T20:31:48.487Z,13.03
2023-03-20T20:40:51.185Z,10.77
2023-03-20T20:44:11.583Z,11.43
2023-03-20T20:46:45.814Z,10.83
2023-03-20T20:49:35.230Z,8.70
2023-03-20T20:52:22.903Z,11.37
2023-03-20T20:55:22.693Z,8.17
2023-03-20T20:58:11.393Z,12.93
2023-03-20T21:01:01.995Z,11.53
2023-03-20T21:03:49.549Z,9.03
2023-03-20T21:07:06.043Z,8.47
2023-03-20T21:09:46.154Z,8.07
2023-03-20T21:12:42.435Z,9.77
2023-03-20T21:15:36.018Z,9.90
2023-03-20T21:18:23.694Z,11.97
2023-03-20T21:21:13.193Z,9.93
2023-03-20T21:24:02.169Z,8.20
2023-03-20T21:26:50.856Z,8.30
2023-03-20T21:29:38.955Z,8.20
2023-03-20T21:32:31.528Z,9.97
2023-03-20T21:35:18.884Z,10.23
2023-03-20T21:38:55.405Z,8.87
2023-03-20T21:41:16.235Z,11.83
2023-03-20T21:44:03.840Z,12.27
2023-03-20T21:47:45.833Z,10.37
2023-03-20T21:50:41.895Z,8.87
2023-03-20T21:53:57.075Z,11.80
2023-03-20T22:02:33.079Z,9.50
2023-03-20T22:09:20.212Z,11.30
2023-03-20T22:18:28.749Z,9.53
2023-03-20T22:22:00.115Z,9.57
2023-03-20T22:27:56.664Z,12.97
2023-03-20T22:40:35.458Z,9.97
2023-03-20T22:43:48.496Z,11.20
2023-03-20T22:46:22.685Z,9.97
2023-03-20T22:49:10.329Z,9.17
2023-03-20T22:52:11.692Z,11.87
2023-03-20T22:55:04.943Z,10.87
2023-03-20T22:58:06.473Z,10.77
2023-03-20T23:00:56.289Z,11.43
2023-03-20T23:03:43.392Z,10.03
2023-03-20T23:06:30.865Z,11.40
2023-03-20T23:09:18.229Z,12.10
2023-03-20T23:12:06.248Z,9.87
2023-03-20T23:14:53.446Z,10.43
2023-03-20T23:17:42.156Z,10.43
2023-03-20T23:20:29.741Z,10.47
2023-03-20T23:23:17.678Z,10.53
2023-03-20T23:26:06.746Z,10.37
2023-03-20T23:28:54.180Z,12.13
2023-03-20T23:31:41.714Z,10.63
2023-03-20T23:34:30.627Z,9.73
2023-03-20T23:37:18.060Z,10.87
2023-03-20T23:40:06.456Z,9.73
2023-03-20T23:42:54.016Z,10.33
2023-03-20T23:45:41.440Z,10.17
2023-03-20T23:48:28.901Z,9.80
2023-03-20T23:51:17.770Z,11.27
2023-03-20T23:54:05.369Z,10.07
2023-03-20T23:56:52.786Z,9.53
2023-03-20T23:59:40.401Z,10.57
